sensor_id;sensor_type;location;lat;lon;timestamp;pressure;altitude;pressure_sealevel;temperature;humidity
829;BME280;396;52.558;13.188;2023-03-23T00:01:21;100060.19;;;12.91;74.90
829;BME280;396;52.558;13.188;2023-03-23T00:03:51;100059.53;;;12.94;74.80
829;BME280;396;52.558;13.188;2023-03-23T00:06:18;100050.09;;;12.92;74.51
829;BME280;396;52.558;13.188;2023-03-23T00:08:48;100045.00;;;12.90;74.67
829;BME280;396;52.558;13.188;2023-03-23T00:11:21;100057.31;;;12.87;74.91
829;BME280;396;52.558;13.188;2023-03-23T00:13:50;100062.50;;;12.80;75.31
829;BME280;396;52.558;13.188;2023-03-23T00:16:17;100061.03;;;12.83;74.32
829;BME280;396;52.558;13.188;2023-03-23T00:18:45;100064.38;;;12.88;74.77
829;BME280;396;52.558;13.188;2023-03-23T00:21:11;100058.59;;;12.90;75.05
829;BME280;396;52.558;13.188;2023-03-23T00:23:38;100049.00;;;12.93;74.80
829;BME280;396;52.558;13.188;2023-03-23T00:26:06;100050.41;;;12.99;73.29
829;BME280;396;52.558;13.188;2023-03-23T00:28:33;100042.88;;;12.96;74.83
829;BME280;396;52.558;13.188;2023-03-23T00:31:02;100042.28;;;12.90;76.04
829;BME280;396;52.558;13.188;2023-03-23T00:33:33;100034.66;;;12.83;76.84
829;BME280;396;52.558;13.188;2023-03-23T00:36:03;100025.44;;;12.76;77.70
829;BME280;396;52.558;13.188;2023-03-23T00:38:31;100029.34;;;12.66;78.47
829;BME280;396;52.558;13.188;2023-03-23T00:40:57;100028.91;;;12.55;78.92
829;BME280;396;52.558;13.188;2023-03-23T00:43:29;100025.44;;;12.46;79.71
829;BME280;396;52.558;13.188;2023-03-23T00:45:57;100015.59;;;12.33;79.84
829;BME280;396;52.558;13.188;2023-03-23T00:48:28;100011.97;;;12.20;81.05
829;BME280;396;52.558;13.188;2023-03-23T00:50:55;100016.16;;;12.18;81.36
829;BME280;396;52.558;13.188;2023-03-23T00:53:22;99999.06;;;12.08;81.95
829;BME280;396;52.558;13.188;2023-03-23T00:55:49;100005.47;;;12.04;82.63
829;BME280;396;52.558;13.188;2023-03-23T00:58:15;100001.84;;;12.00;82.97
829;BME280;396;52.558;13.188;2023-03-23T01:00:43;100000.91;;;11.96;83.11
829;BME280;396;52.558;13.188;2023-03-23T01:03:10;100001.06;;;11.91;83.38
829;BME280;396;52.558;13.188;2023-03-23T01:05:44;99995.63;;;11.82;83.91
829;BME280;396;52.558;13.188;2023-03-23T01:08:12;99992.44;;;11.80;84.42
829;BME280;396;52.558;13.188;2023-03-23T01:10:40;99999.16;;;11.74;84.16
829;BME280;396;52.558;13.188;2023-03-23T01:13:07;99997.88;;;11.71;83.36
829;BME280;396;52.558;13.188;2023-03-23T01:15:34;99985.28;;;11.67;82.53
829;BME280;396;52.558;13.188;2023-03-23T01:18:02;99978.75;;;11.59;81.95
829;BME280;396;52.558;13.188;2023-03-23T01:20:29;99975.75;;;11.52;82.09
829;BME280;396;52.558;13.188;2023-03-23T01:22:56;99975.59;;;11.48;82.76
829;BME280;396;52.558;13.188;2023-03-23T01:25:26;99978.50;;;11.43;82.87
829;BME280;396;52.558;13.188;2023-03-23T01:27:53;99974.84;;;11.30;83.22
829;BME280;396;52.558;13.188;2023-03-23T01:30:20;99984.53;;;11.40;83.82
829;BME280;396;52.558;13.188;2023-03-23T01:32:46;99977.03;;;11.46;84.58
829;BME280;396;52.558;13.188;2023-03-23T01:35:15;99985.16;;;11.46;84.92
829;BME280;396;52.558;13.188;2023-03-23T01:37:41;99984.88;;;11.47;84.55
829;BME280;396;52.558;13.188;2023-03-23T01:40:09;99981.19;;;11.52;84.99
829;BME280;396;52.558;13.188;2023-03-23T01:42:37;99989.94;;;11.57;84.61
829;BME280;396;52.558;13.188;2023-03-23T01:45:26;99976.81;;;11.68;83.07
829;BME280;396;52.558;13.188;2023-03-23T01:48:07;99965.31;;;11.80;83.46
829;BME280;396;52.558;13.188;2023-03-23T01:50:43;99961.97;;;11.83;83.55
829;BME280;396;52.558;13.188;2023-03-23T01:53:13;99962.41;;;11.94;82.53
829;BME280;396;52.558;13.188;2023-03-23T01:55:41;99969.59;;;11.98;82.34
829;BME280;396;52.558;13.188;2023-03-23T01:58:10;99955.53;;;12.05;81.83
829;BME280;396;52.558;13.188;2023-03-23T02:00:38;99947.19;;;12.10;81.65
829;BME280;396;52.558;13.188;2023-03-23T02:03:08;99954.00;;;12.16;79.84
829;BME280;396;52.558;13.188;2023-03-23T02:05:41;99949.53;;;12.20;80.15
829;BME280;396;52.558;13.188;2023-03-23T02:08:08;99957.16;;;12.27;80.22
829;BME280;396;52.558;13.188;2023-03-23T02:10:37;99953.66;;;12.26;80.62
829;BME280;396;52.558;13.188;2023-03-23T02:13:06;99949.63;;;12.32;78.98
829;BME280;396;52.558;13.188;2023-03-23T02:15:39;99945.59;;;12.38;79.18
829;BME280;396;52.558;13.188;2023-03-23T02:18:13;99941.09;;;12.43;79.38
829;BME280;396;52.558;13.188;2023-03-23T02:24:00;99930.72;;;12.45;78.40
829;BME280;396;52.558;13.188;2023-03-23T02:26:38;99933.09;;;12.46;78.50
829;BME280;396;52.558;13.188;2023-03-23T02:29:27;99942.50;;;12.49;77.76
829;BME280;396;52.558;13.188;2023-03-23T02:32:07;99941.38;;;12.50;77.59
829;BME280;396;52.558;13.188;2023-03-23T02:34:40;99950.47;;;12.54;77.61
829;BME280;396;52.558;13.188;2023-03-23T02:37:10;99943.75;;;12.51;77.98
829;BME280;396;52.558;13.188;2023-03-23T02:39:42;99947.25;;;12.52;78.58
829;BME280;396;52.558;13.188;2023-03-23T02:42:12;99943.16;;;12.46;81.10
829;BME280;396;52.558;13.188;2023-03-23T02:44:43;99935.00;;;12.46;81.75
829;BME280;396;52.558;13.188;2023-03-23T02:47:12;99939.06;;;12.40;82.91
829;BME280;396;52.558;13.188;2023-03-23T02:49:44;99937.91;;;12.41;82.74
829;BME280;396;52.558;13.188;2023-03-23T02:52:15;99928.53;;;12.29;83.79
829;BME280;396;52.558;13.188;2023-03-23T02:54:46;99930.47;;;12.29;83.57
829;BME280;396;52.558;13.188;2023-03-23T02:57:13;99923.91;;;12.30;84.36
829;BME280;396;52.558;13.188;2023-03-23T02:59:40;99923.25;;;12.33;85.11
829;BME280;396;52.558;13.188;2023-03-23T03:02:10;99926.31;;;12.31;86.09
829;BME280;396;52.558;13.188;2023-03-23T03:04:40;99931.06;;;12.34;82.46
829;BME280;396;52.558;13.188;2023-03-23T03:07:23;99926.72;;;12.42;81.87
829;BME280;396;52.558;13.188;2023-03-23T03:09:56;99926.31;;;12.52;80.59
829;BME280;396;52.558;13.188;2023-03-23T03:12:31;99928.53;;;12.59;80.95
829;BME280;396;52.558;13.188;2023-03-23T03:15:08;99927.41;;;12.60;79.58
829;BME280;396;52.558;13.188;2023-03-23T03:17:41;99922.88;;;12.64;78.98
829;BME280;396;52.558;13.188;2023-03-23T03:20:12;99928.47;;;12.68;79.02
829;BME280;396;52.558;13.188;2023-03-23T03:22:43;99927.00;;;12.70;78.85
829;BME280;396;52.558;13.188;2023-03-23T03:25:11;99938.69;;;12.71;78.82
829;BME280;396;52.558;13.188;2023-03-23T03:27:42;99948.47;;;12.63;81.84
829;BME280;396;52.558;13.188;2023-03-23T03:30:13;99939.44;;;12.50;83.75
829;BME280;396;52.558;13.188;2023-03-23T03:32:44;99937.44;;;12.38;84.99
829;BME280;396;52.558;13.188;2023-03-23T03:35:14;99945.81;;;12.25;87.37
829;BME280;396;52.558;13.188;2023-03-23T03:37:42;99929.78;;;12.11;89.16
829;BME280;396;52.558;13.188;2023-03-23T03:40:13;99937.53;;;11.92;91.93
829;BME280;396;52.558;13.188;2023-03-23T03:42:42;99938.50;;;11.78;92.76
829;BME280;396;52.558;13.188;2023-03-23T03:45:11;99919.38;;;11.75;92.64
829;BME280;396;52.558;13.188;2023-03-23T03:47:38;99926.25;;;11.63;92.91
829;BME280;396;52.558;13.188;2023-03-23T03:50:05;99928.16;;;11.63;93.18
829;BME280;396;52.558;13.188;2023-03-23T03:52:33;99925.94;;;11.65;92.64
829;BME280;396;52.558;13.188;2023-03-23T03:55:01;99921.63;;;11.64;93.14
829;BME280;396;52.558;13.188;2023-03-23T03:57:27;99915.88;;;11.66;93.69
829;BME280;396;52.558;13.188;2023-03-23T03:59:54;99924.97;;;11.70;94.90
829;BME280;396;52.558;13.188;2023-03-23T04:02:21;99922.56;;;11.68;96.29
829;BME280;396;52.558;13.188;2023-03-23T04:04:49;99919.84;;;11.68;97.08
829;BME280;396;52.558;13.188;2023-03-23T04:07:17;99912.19;;;11.70;98.02
829;BME280;396;52.558;13.188;2023-03-23T04:09:45;99908.38;;;11.71;98.67
829;BME280;396;52.558;13.188;2023-03-23T04:12:14;99905.31;;;11.73;99.89
829;BME280;396;52.558;13.188;2023-03-23T04:14:41;99921.47;;;11.69;100.00
829;BME280;396;52.558;13.188;2023-03-23T04:17:08;99923.69;;;11.67;100.00
829;BME280;396;52.558;13.188;2023-03-23T04:19:36;99924.22;;;11.60;100.00
829;BME280;396;52.558;13.188;2023-03-23T04:22:04;99923.41;;;11.60;100.00
829;BME280;396;52.558;13.188;2023-03-23T04:24:32;99896.28;;;11.60;100.00
829;BME280;396;52.558;13.188;2023-03-23T04:26:59;99911.75;;;11.59;100.00
829;BME280;396;52.558;13.188;2023-03-23T04:29:28;99923.56;;;11.55;100.00
829;BME280;396;52.558;13.188;2023-03-23T04:31:55;99913.19;;;11.57;100.00
829;BME280;396;52.558;13.188;2023-03-23T04:34:22;99914.34;;;11.56;100.00
829;BME280;396;52.558;13.188;2023-03-23T04:36:49;99914.00;;;11.57;100.00
829;BME280;396;52.558;13.188;2023-03-23T04:39:16;99915.44;;;11.55;100.00
829;BME280;396;52.558;13.188;2023-03-23T04:41:43;99928.53;;;11.53;100.00
829;BME280;396;52.558;13.188;2023-03-23T04:44:11;99933.00;;;11.49;100.00
829;BME280;396;52.558;13.188;2023-03-23T04:46:44;99941.16;;;11.49;100.00
829;BME280;396;52.558;13.188;2023-03-23T04:49:15;99942.28;;;11.48;100.00
829;BME280;396;52.558;13.188;2023-03-23T04:51:46;99929.00;;;11.46;100.00
829;BME280;396;52.558;13.188;2023-03-23T04:54:13;99937.47;;;11.45;100.00
829;BME280;396;52.558;13.188;2023-03-23T04:56:40;99946.75;;;11.44;100.00
829;BME280;396;52.558;13.188;2023-03-23T04:59:07;99961.72;;;11.41;100.00
829;BME280;396;52.558;13.188;2023-03-23T05:01:33;99958.56;;;11.39;100.00
829;BME280;396;52.558;13.188;2023-03-23T05:04:04;99951.66;;;11.42;100.00
829;BME280;396;52.558;13.188;2023-03-23T05:06:30;99943.88;;;11.40;100.00
829;BME280;396;52.558;13.188;2023-03-23T05:08:57;99942.59;;;11.37;100.00
829;BME280;396;52.558;13.188;2023-03-23T05:11:23;99934.78;;;11.36;100.00
829;BME280;396;52.558;13.188;2023-03-23T05:13:50;99930.94;;;11.37;100.00
829;BME280;396;52.558;13.188;2023-03-23T05:16:17;99931.75;;;11.37;100.00
829;BME280;396;52.558;13.188;2023-03-23T05:18:43;99925.41;;;11.33;100.00
829;BME280;396;52.558;13.188;2023-03-23T05:21:12;99927.63;;;11.31;100.00
829;BME280;396;52.558;13.188;2023-03-23T05:23:39;99927.63;;;11.31;100.00
829;BME280;396;52.558;13.188;2023-03-23T05:26:07;99924.44;;;11.29;100.00
829;BME280;396;52.558;13.188;2023-03-23T05:28:34;99923.78;;;11.24;100.00
829;BME280;396;52.558;13.188;2023-03-23T05:31:01;99941.50;;;11.21;100.00
829;BME280;396;52.558;13.188;2023-03-23T05:33:28;99942.94;;;11.19;100.00
829;BME280;396;52.558;13.188;2023-03-23T05:35:54;99950.28;;;11.18;100.00
829;BME280;396;52.558;13.188;2023-03-23T05:38:22;99954.56;;;11.19;100.00
829;BME280;396;52.558;13.188;2023-03-23T05:40:49;99947.75;;;11.13;100.00
829;BME280;396;52.558;13.188;2023-03-23T05:43:17;99952.81;;;11.15;100.00
829;BME280;396;52.558;13.188;2023-03-23T05:45:44;99953.78;;;11.10;100.00
829;BME280;396;52.558;13.188;2023-03-23T05:48:10;99955.53;;;11.06;100.00
829;BME280;396;52.558;13.188;2023-03-23T05:50:37;99952.03;;;11.05;100.00
829;BME280;396;52.558;13.188;2023-03-23T05:53:04;99947.13;;;10.99;100.00
829;BME280;396;52.558;13.188;2023-03-23T05:55:31;99957.16;;;10.98;100.00
829;BME280;396;52.558;13.188;2023-03-23T05:57:58;99959.22;;;10.93;100.00
829;BME280;396;52.558;13.188;2023-03-23T06:00:25;99963.03;;;10.92;100.00
829;BME280;396;52.558;13.188;2023-03-23T06:02:55;99957.94;;;10.90;100.00
829;BME280;396;52.558;13.188;2023-03-23T06:05:22;99951.06;;;10.84;100.00
829;BME280;396;52.558;13.188;2023-03-23T06:07:51;99961.13;;;10.83;100.00
829;BME280;396;52.558;13.188;2023-03-23T06:10:17;99955.88;;;10.78;100.00
829;BME280;396;52.558;13.188;2023-03-23T06:12:45;99956.97;;;10.77;100.00
829;BME280;396;52.558;13.188;2023-03-23T06:15:12;99961.59;;;10.77;100.00
829;BME280;396;52.558;13.188;2023-03-23T06:17:39;99964.31;;;10.77;100.00
829;BME280;396;52.558;13.188;2023-03-23T06:20:07;99962.56;;;10.72;100.00
829;BME280;396;52.558;13.188;2023-03-23T06:22:35;99961.78;;;10.72;100.00
829;BME280;396;52.558;13.188;2023-03-23T06:25:01;99969.41;;;10.70;100.00
829;BME280;396;52.558;13.188;2023-03-23T06:27:28;99972.72;;;10.67;100.00
829;BME280;396;52.558;13.188;2023-03-23T06:29:56;99965.91;;;10.69;100.00
829;BME280;396;52.558;13.188;2023-03-23T06:32:24;99973.69;;;10.71;100.00
829;BME280;396;52.558;13.188;2023-03-23T06:34:52;99968.44;;;10.74;100.00
829;BME280;396;52.558;13.188;2023-03-23T06:37:19;99968.16;;;10.76;100.00
829;BME280;396;52.558;13.188;2023-03-23T06:39:46;99959.69;;;10.77;100.00
829;BME280;396;52.558;13.188;2023-03-23T06:42:13;99967.81;;;10.77;100.00
829;BME280;396;52.558;13.188;2023-03-23T06:44:40;99977.88;;;10.77;100.00
829;BME280;396;52.558;13.188;2023-03-23T06:47:08;99972.13;;;10.78;100.00
829;BME280;396;52.558;13.188;2023-03-23T06:49:34;99976.59;;;10.83;100.00
829;BME280;396;52.558;13.188;2023-03-23T06:52:01;99976.59;;;10.83;100.00
829;BME280;396;52.558;13.188;2023-03-23T06:54:29;99970.53;;;10.86;100.00
829;BME280;396;52.558;13.188;2023-03-23T06:56:55;99970.84;;;10.84;100.00
829;BME280;396;52.558;13.188;2023-03-23T06:59:22;99957.44;;;10.88;100.00
829;BME280;396;52.558;13.188;2023-03-23T07:01:49;99959.88;;;10.90;100.00
829;BME280;396;52.558;13.188;2023-03-23T07:04:16;99955.06;;;10.95;100.00
829;BME280;396;52.558;13.188;2023-03-23T07:06:43;99945.03;;;10.96;100.00
829;BME280;396;52.558;13.188;2023-03-23T07:09:10;99940.06;;;10.98;100.00
829;BME280;396;52.558;13.188;2023-03-23T07:11:37;99959.69;;;10.95;100.00
829;BME280;396;52.558;13.188;2023-03-23T07:14:04;99977.56;;;10.96;100.00
829;BME280;396;52.558;13.188;2023-03-23T07:16:30;99978.34;;;10.96;100.00
829;BME280;396;52.558;13.188;2023-03-23T07:18:57;99967.66;;;11.00;100.00
829;BME280;396;52.558;13.188;2023-03-23T07:21:26;99967.50;;;11.05;100.00
829;BME280;396;52.558;13.188;2023-03-23T07:23:52;99963.03;;;11.09;100.00
829;BME280;396;52.558;13.188;2023-03-23T07:26:19;99955.06;;;11.13;100.00
829;BME280;396;52.558;13.188;2023-03-23T07:28:46;99954.75;;;11.14;100.00
829;BME280;396;52.558;13.188;2023-03-23T07:31:13;99954.91;;;11.18;100.00
829;BME280;396;52.558;13.188;2023-03-23T07:33:40;99943.28;;;11.17;100.00
829;BME280;396;52.558;13.188;2023-03-23T07:36:07;99923.00;;;11.15;100.00
829;BME280;396;52.558;13.188;2023-03-23T07:38:35;99893.69;;;11.17;100.00
829;BME280;396;52.558;13.188;2023-03-23T07:41:02;99895.44;;;11.21;100.00
829;BME280;396;52.558;13.188;2023-03-23T07:43:29;99917.41;;;11.28;100.00
829;BME280;396;52.558;13.188;2023-03-23T07:45:56;99922.34;;;11.35;100.00
829;BME280;396;52.558;13.188;2023-03-23T07:48:22;99925.03;;;11.44;100.00
829;BME280;396;52.558;13.188;2023-03-23T07:50:49;99938.25;;;11.54;100.00
829;BME280;396;52.558;13.188;2023-03-23T07:53:15;99943.38;;;11.55;100.00
829;BME280;396;52.558;13.188;2023-03-23T07:55:43;99949.88;;;11.63;100.00
829;BME280;396;52.558;13.188;2023-03-23T07:58:10;99953.06;;;11.65;100.00
829;BME280;396;52.558;13.188;2023-03-23T08:00:42;99956.75;;;11.69;100.00
829;BME280;396;52.558;13.188;2023-03-23T08:03:09;99956.25;;;11.67;100.00
829;BME280;396;52.558;13.188;2023-03-23T08:05:35;99959.91;;;11.71;100.00
829;BME280;396;52.558;13.188;2023-03-23T08:08:02;99958.16;;;11.75;100.00
829;BME280;396;52.558;13.188;2023-03-23T08:10:30;99963.56;;;11.75;100.00
829;BME280;396;52.558;13.188;2023-03-23T08:12:58;99966.09;;;11.80;100.00
829;BME280;396;52.558;13.188;2023-03-23T08:15:25;99969.16;;;11.79;100.00
829;BME280;396;52.558;13.188;2023-03-23T08:17:52;99968.34;;;11.78;100.00
829;BME280;396;52.558;13.188;2023-03-23T08:20:19;99968.53;;;11.73;100.00
829;BME280;396;52.558;13.188;2023-03-23T08:22:49;99952.06;;;11.78;100.00
829;BME280;396;52.558;13.188;2023-03-23T08:25:18;99952.19;;;11.82;100.00
829;BME280;396;52.558;13.188;2023-03-23T08:27:46;99983.69;;;11.83;100.00
829;BME280;396;52.558;13.188;2023-03-23T08:30:16;99978.53;;;11.81;100.00
829;BME280;396;52.558;13.188;2023-03-23T08:32:44;99976.16;;;11.89;100.00
829;BME280;396;52.558;13.188;2023-03-23T08:35:11;99978.25;;;11.92;100.00
829;BME280;396;52.558;13.188;2023-03-23T08:37:39;99977.09;;;12.01;100.00
829;BME280;396;52.558;13.188;2023-03-23T08:40:08;99970.03;;;12.09;100.00
829;BME280;396;52.558;13.188;2023-03-23T08:42:35;99974.59;;;12.17;100.00
829;BME280;396;52.558;13.188;2023-03-23T08:45:04;99976.03;;;12.23;100.00
829;BME280;396;52.558;13.188;2023-03-23T08:47:32;99977.44;;;12.29;100.00
829;BME280;396;52.558;13.188;2023-03-23T08:49:59;99968.81;;;12.27;100.00
829;BME280;396;52.558;13.188;2023-03-23T08:52:25;99981.13;;;12.25;100.00
829;BME280;396;52.558;13.188;2023-03-23T08:54:52;99981.13;;;12.25;100.00
829;BME280;396;52.558;13.188;2023-03-23T08:57:18;99988.78;;;12.31;100.00
829;BME280;396;52.558;13.188;2023-03-23T08:59:45;99994.22;;;12.31;100.00
829;BME280;396;52.558;13.188;2023-03-23T09:02:12;99999.31;;;12.33;100.00
829;BME280;396;52.558;13.188;2023-03-23T09:04:40;100002.16;;;12.36;100.00
829;BME280;396;52.558;13.188;2023-03-23T09:07:08;99997.88;;;12.35;100.00
829;BME280;396;52.558;13.188;2023-03-23T09:09:36;100004.09;;;12.36;100.00
829;BME280;396;52.558;13.188;2023-03-23T09:12:04;99991.59;;;12.35;100.00
829;BME280;396;52.558;13.188;2023-03-23T09:14:31;99990.31;;;12.41;100.00
829;BME280;396;52.558;13.188;2023-03-23T09:16:58;99990.13;;;12.46;100.00
829;BME280;396;52.558;13.188;2023-03-23T09:19:24;99982.38;;;12.57;100.00
829;BME280;396;52.558;13.188;2023-03-23T09:21:52;99981.09;;;12.63;100.00
829;BME280;396;52.558;13.188;2023-03-23T09:24:19;99982.03;;;12.67;100.00
829;BME280;396;52.558;13.188;2023-03-23T09:26:46;99986.13;;;12.73;100.00
829;BME280;396;52.558;13.188;2023-03-23T09:29:13;99975.53;;;12.80;100.00
829;BME280;396;52.558;13.188;2023-03-23T09:31:39;99981.03;;;12.93;100.00
829;BME280;396;52.558;13.188;2023-03-23T09:34:07;99984.00;;;13.00;100.00
829;BME280;396;52.558;13.188;2023-03-23T09:36:35;99989.38;;;13.08;100.00
829;BME280;396;52.558;13.188;2023-03-23T09:39:03;99985.47;;;13.18;100.00
829;BME280;396;52.558;13.188;2023-03-23T09:41:48;99988.13;;;13.27;100.00
829;BME280;396;52.558;13.188;2023-03-23T09:44:24;99987.84;;;13.41;100.00
829;BME280;396;52.558;13.188;2023-03-23T09:46:58;99990.28;;;13.54;100.00
829;BME280;396;52.558;13.188;2023-03-23T09:49:30;100007.00;;;13.65;99.55
829;BME280;396;52.558;13.188;2023-03-23T09:52:02;100004.63;;;13.76;97.21
829;BME280;396;52.558;13.188;2023-03-23T09:54:34;100006.25;;;13.77;97.24
829;BME280;396;52.558;13.188;2023-03-23T09:57:02;100003.84;;;13.75;97.89
829;BME280;396;52.558;13.188;2023-03-23T09:59:31;100010.31;;;13.83;95.96
829;BME280;396;52.558;13.188;2023-03-23T10:02:04;100014.28;;;13.85;96.25
829;BME280;396;52.558;13.188;2023-03-23T10:04:38;100014.19;;;13.94;94.83
829;BME280;396;52.558;13.188;2023-03-23T10:07:10;100008.44;;;13.96;94.73
829;BME280;396;52.558;13.188;2023-03-23T10:09:41;100015.47;;;13.97;93.58
829;BME280;396;52.558;13.188;2023-03-23T10:12:19;100002.06;;;13.92;94.42
829;BME280;396;52.558;13.188;2023-03-23T10:14:55;100000.47;;;13.91;93.61
829;BME280;396;52.558;13.188;2023-03-23T10:17:28;99993.69;;;13.97;92.80
829;BME280;396;52.558;13.188;2023-03-23T10:20:05;99999.56;;;13.99;93.51
829;BME280;396;52.558;13.188;2023-03-23T10:22:40;99990.75;;;14.14;94.34
829;BME280;396;52.558;13.188;2023-03-23T10:25:15;99995.63;;;14.21;90.22
829;BME280;396;52.558;13.188;2023-03-23T10:27:46;99992.78;;;14.29;89.74
829;BME280;396;52.558;13.188;2023-03-23T10:30:21;99989.16;;;14.37;90.63
829;BME280;396;52.558;13.188;2023-03-23T10:32:52;99984.63;;;14.42;89.78
829;BME280;396;52.558;13.188;2023-03-23T10:35:24;99975.56;;;14.50;88.88
829;BME280;396;52.558;13.188;2023-03-23T10:37:54;99987.59;;;14.61;88.46
829;BME280;396;52.558;13.188;2023-03-23T10:40:27;99986.56;;;14.66;88.27
829;BME280;396;52.558;13.188;2023-03-23T10:42:57;99986.66;;;14.69;88.02
829;BME280;396;52.558;13.188;2023-03-23T10:45:25;99974.19;;;14.56;87.19
829;BME280;396;52.558;13.188;2023-03-23T10:47:56;99991.13;;;14.61;86.37
829;BME280;396;52.558;13.188;2023-03-23T10:50:27;99986.22;;;14.55;86.72
829;BME280;396;52.558;13.188;2023-03-23T10:52:58;99994.50;;;14.58;86.71
829;BME280;396;52.558;13.188;2023-03-23T10:55:39;99980.88;;;14.58;87.15
829;BME280;396;52.558;13.188;2023-03-23T10:58:09;99983.50;;;14.67;86.82
829;BME280;396;52.558;13.188;2023-03-23T11:00:41;99989.72;;;14.68;85.94
829;BME280;396;52.558;13.188;2023-03-23T11:03:35;99998.13;;;14.75;86.83
829;BME280;396;52.558;13.188;2023-03-23T11:06:05;99997.91;;;14.80;86.41
829;BME280;396;52.558;13.188;2023-03-23T11:08:35;100001.00;;;14.66;85.72
829;BME280;396;52.558;13.188;2023-03-23T11:11:11;99997.91;;;14.68;85.74
829;BME280;396;52.558;13.188;2023-03-23T11:13:42;100004.72;;;14.74;84.48
829;BME280;396;52.558;13.188;2023-03-23T11:16:22;100010.50;;;14.72;84.65
829;BME280;396;52.558;13.188;2023-03-23T11:18:49;100004.38;;;14.75;85.39
829;BME280;396;52.558;13.188;2023-03-23T11:21:15;100006.28;;;14.87;83.65
829;BME280;396;52.558;13.188;2023-03-23T11:23:47;100010.63;;;14.88;83.34
829;BME280;396;52.558;13.188;2023-03-23T11:26:20;100012.97;;;15.02;82.58
829;BME280;396;52.558;13.188;2023-03-23T11:28:52;100022.13;;;15.09;83.36
829;BME280;396;52.558;13.188;2023-03-23T11:31:22;100013.91;;;15.22;82.16
829;BME280;396;52.558;13.188;2023-03-23T11:33:53;100022.19;;;15.37;81.58
829;BME280;396;52.558;13.188;2023-03-23T11:36:29;100023.25;;;15.49;80.88
829;BME280;396;52.558;13.188;2023-03-23T11:38:56;100026.88;;;15.53;80.49
829;BME280;396;52.558;13.188;2023-03-23T11:41:32;100026.59;;;15.42;80.87
829;BME280;396;52.558;13.188;2023-03-23T11:44:07;100025.34;;;15.39;79.71
829;BME280;396;52.558;13.188;2023-03-23T11:46:40;100026.84;;;15.37;79.66
829;BME280;396;52.558;13.188;2023-03-23T11:49:12;100022.97;;;15.38;78.07
829;BME280;396;52.558;13.188;2023-03-23T11:51:44;100026.06;;;15.36;79.51
829;BME280;396;52.558;13.188;2023-03-23T11:54:16;100006.81;;;15.45;78.50
829;BME280;396;52.558;13.188;2023-03-23T11:56:47;100023.97;;;15.46;78.61
829;BME280;396;52.558;13.188;2023-03-23T11:59:16;100018.25;;;15.51;77.42
829;BME280;396;52.558;13.188;2023-03-23T12:01:48;100018.25;;;15.51;77.25
829;BME280;396;52.558;13.188;2023-03-23T12:04:37;100019.41;;;15.50;77.16
829;BME280;396;52.558;13.188;2023-03-23T12:07:22;100013.22;;;15.53;77.42
829;BME280;396;52.558;13.188;2023-03-23T12:09:57;100032.09;;;15.58;77.70
829;BME280;396;52.558;13.188;2023-03-23T12:12:33;100026.78;;;15.49;77.20
829;BME280;396;52.558;13.188;2023-03-23T12:15:10;100020.25;;;15.38;78.00
829;BME280;396;52.558;13.188;2023-03-23T12:17:50;100017.63;;;15.42;77.87
829;BME280;396;52.558;13.188;2023-03-23T12:20:29;100023.50;;;15.44;77.47
829;BME280;396;52.558;13.188;2023-03-23T12:23:07;100013.06;;;15.46;77.70
829;BME280;396;52.558;13.188;2023-03-23T12:26:02;100012.16;;;15.42;77.90
829;BME280;396;52.558;13.188;2023-03-23T12:28:47;100004.63;;;15.51;76.51
829;BME280;396;52.558;13.188;2023-03-23T12:31:19;100007.78;;;15.53;75.33
829;BME280;396;52.558;13.188;2023-03-23T12:33:56;100009.13;;;15.59;75.10
829;BME280;396;52.558;13.188;2023-03-23T12:36:35;100009.78;;;15.68;75.48
829;BME280;396;52.558;13.188;2023-03-23T12:42:17;100004.09;;;15.61;75.67
829;BME280;396;52.558;13.188;2023-03-23T12:44:53;99980.66;;;15.72;74.99
829;BME280;396;52.558;13.188;2023-03-23T12:47:33;99988.75;;;15.84;74.72
829;BME280;396;52.558;13.188;2023-03-23T12:50:07;99984.78;;;15.98;72.36
829;BME280;396;52.558;13.188;2023-03-23T12:52:40;99975.34;;;16.43;72.26
829;BME280;396;52.558;13.188;2023-03-23T12:55:16;99983.53;;;17.52;70.92
829;BME280;396;52.558;13.188;2023-03-23T12:57:49;99998.94;;;18.25;63.77
829;BME280;396;52.558;13.188;2023-03-23T13:00:22;99987.03;;;18.67;62.18
829;BME280;396;52.558;13.188;2023-03-23T13:02:54;100008.72;;;19.66;60.88
829;BME280;396;52.558;13.188;2023-03-23T13:05:40;100013.16;;;20.22;56.90
829;BME280;396;52.558;13.188;2023-03-23T13:08:15;100005.19;;;20.06;55.48
829;BME280;396;52.558;13.188;2023-03-23T13:10:45;100010.50;;;20.33;55.90
829;BME280;396;52.558;13.188;2023-03-23T13:13:17;100006.91;;;20.77;54.64
829;BME280;396;52.558;13.188;2023-03-23T13:15:55;100005.53;;;21.15;52.95
829;BME280;396;52.558;13.188;2023-03-23T13:18:29;99999.66;;;21.27;50.51
829;BME280;396;52.558;13.188;2023-03-23T13:21:07;99993.34;;;21.23;51.05
829;BME280;396;52.558;13.188;2023-03-23T13:23:38;99995.88;;;21.64;50.54
829;BME280;396;52.558;13.188;2023-03-23T13:26:08;99992.41;;;22.21;47.82
829;BME280;396;52.558;13.188;2023-03-23T13:28:50;99983.69;;;21.79;49.00
829;BME280;396;52.558;13.188;2023-03-23T13:31:21;99982.09;;;21.71;49.04
829;BME280;396;52.558;13.188;2023-03-23T13:33:52;99973.38;;;21.40;49.41
829;BME280;396;52.558;13.188;2023-03-23T13:36:27;99967.16;;;21.90;46.95
829;BME280;396;52.558;13.188;2023-03-23T13:38:54;99949.75;;;21.39;48.31
829;BME280;396;52.558;13.188;2023-03-23T13:41:22;99954.91;;;21.55;48.95
829;BME280;396;52.558;13.188;2023-03-23T13:43:48;99950.09;;;21.27;48.67
829;BME280;396;52.558;13.188;2023-03-23T13:46:28;99957.28;;;21.64;48.25